Oostkamp, Belgium
Current Conditions -  °F | °C
As of 12:50 PM on Friday 19 Dec 2014 (Local Time) from EBOS Reporting Station
Broken Clouds Broken Clouds  
Wind Chill: 50°   Ceiling: 3000
Heat Index: 50°   Visibility: 6mi
Dew Point: 45°   Wind: 13mph
Humidity: 82%   Direction: 300°WNW
Pressure: 29.94"   Gusts: NA
Location:  51.15°N, 3.23°E
Report Text: EBOS 191150Z 30011KT 9999 SCT020 BKN030 10/07 Q1014 NOSIG
Loading
Personal Weather Stations






























Interactive Weather Map New forecast layout! Learn more

10-Day Weather Forecast

Advertisements
Track Severe Weather on mobile